Check out our new PWSWeather beta!
PWSweather.com
Personal Weather Stations
Station Observations
VPOKROGLO
Kal Nad Kanalom, PrimorskaSI

Kal Nad KanalomPrimorskaSI

Lat: 46.072, Lon: 13.734

Elevation: 2526

Station Type: WS-2355

https://okroglovreme.com

High Low Average
Temperature 48.7°F9.3°F 41.2°F5.1°F 43.6°F6.4°F
Dew Point 43.4°F6.3°F 35.2°F1.8°F 38.6°F3.7°F
Winds 8.5 mph -13.7 mph - Calm Calm 3.0 mph 4.8 mph
Wind Gusts 17.4 mph28.0 mph -- 8.3 mph13.4 mph
Humidity 91% 68% 83%
Pressure 30.27 in1025.10 in 30.18 in1022.00 in -
Precipitation 0.14 in3.60 in - -
Hour Temp Dew Point Humidity Winds Wind Gusts Pressure Precip Precip Rate Daily Precip Total
12:00 AM 41.5°F5.3°C 38.8°F3.8°C 90% 6.4 mph S10.3 kmh S 11.9 mph19.2 kmh 30.20 in1022.7 mb 0.00 in0.0 mm 0.00 in0.0 mm 0.00 in0.0 mm
12:15 AM 41.5°F5.3°C 39.1°F3.9°C 91% 8.5 mph S13.7 kmh S 12.8 mph20.6 kmh 30.20 in1022.7 mb 0.00 in0.0 mm 0.00 in0.0 mm 0.00 in0.0 mm
12:30 AM 41.5°F5.3°C 39.1°F3.9°C 91% 7.8 mph S12.6 kmh S 13.0 mph20.9 kmh 30.20 in1022.7 mb 0.02 in0.5 mm 0.08 in2.0 mm 0.02 in0.5 mm
12:45 AM 41.4°F5.2°C 38.9°F3.8°C 91% 7.8 mph S12.6 kmh S 11.9 mph19.2 kmh 30.20 in1022.7 mb 0.02 in0.5 mm 0.00 in0.0 mm 0.02 in0.5 mm
01:00 AM 41.5°F5.3°C 39.1°F3.9°C 91% 5.9 mph S9.5 kmh S 9.4 mph15.1 kmh 30.20 in1022.7 mb 0.02 in0.5 mm 0.00 in0.0 mm 0.02 in0.5 mm
01:15 AM 41.5°F5.3°C 39.1°F3.9°C 91% 5.4 mph S8.7 kmh S 9.2 mph14.8 kmh 30.20 in1022.7 mb 0.02 in0.5 mm 0.00 in0.0 mm 0.02 in0.5 mm
01:30 AM 41.5°F5.3°C 39.1°F3.9°C 91% 3.9 mph SSE6.3 kmh SSE 6.5 mph10.5 kmh 30.20 in1022.7 mb 0.00 in0.0 mm 0.00 in0.0 mm 0.02 in0.5 mm
01:45 AM 41.5°F5.3°C 39.1°F3.9°C 91% 4.6 mph S7.4 kmh S 8.1 mph13.0 kmh 30.20 in1022.7 mb 0.00 in0.0 mm 0.00 in0.0 mm 0.02 in0.5 mm
02:00 AM 41.5°F5.3°C 39.1°F3.9°C 91% 4.2 mph SSE6.8 kmh SSE 6.7 mph10.8 kmh 30.20 in1022.7 mb 0.00 in0.0 mm 0.00 in0.0 mm 0.02 in0.5 mm
02:15 AM 41.5°F5.3°C 39.1°F3.9°C 91% 3.4 mph S5.5 kmh S 6.0 mph9.7 kmh 30.19 in1022.4 mb 0.00 in0.0 mm 0.00 in0.0 mm 0.02 in0.5 mm
02:30 AM 41.4°F5.2°C 38.9°F3.8°C 91% 1.7 mph S2.7 kmh S 5.1 mph8.2 kmh 30.19 in1022.4 mb 0.00 in0.0 mm 0.00 in0.0 mm 0.02 in0.5 mm
02:45 AM 41.2°F5.1°C 38.8°F3.8°C 91% 1.0 mph S1.6 kmh S 3.4 mph5.5 kmh 30.18 in1022.0 mb 0.00 in0.0 mm 0.00 in0.0 mm 0.02 in0.5 mm
03:00 AM 41.2°F5.1°C 38.8°F3.8°C 91% 1.8 mph S2.9 kmh S 3.8 mph6.1 kmh 30.18 in1022.0 mb 0.00 in0.0 mm 0.00 in0.0 mm 0.02 in0.5 mm
03:15 AM 41.4°F5.2°C 38.9°F3.8°C 91% 1.2 mph SSE1.9 kmh SSE 3.8 mph6.1 kmh 30.18 in1022.0 mb 0.00 in0.0 mm 0.00 in0.0 mm 0.02 in0.5 mm
03:30 AM 41.5°F5.3°C 39.1°F3.9°C 91% 1.0 mph SSE1.6 kmh SSE 3.6 mph5.8 kmh 30.18 in1022.0 mb 0.00 in0.0 mm 0.00 in0.0 mm 0.02 in0.5 mm
03:45 AM 41.5°F5.3°C 39.1°F3.9°C 91% Calm Calm -- 30.18 in1022.0 mb 0.00 in0.0 mm 0.00 in0.0 mm 0.02 in0.5 mm
04:00 AM 41.5°F5.3°C 39.1°F3.9°C 91% 0.1 mph SSE0.2 kmh SSE 1.6 mph2.6 kmh 30.19 in1022.4 mb 0.00 in0.0 mm 0.00 in0.0 mm 0.02 in0.5 mm
04:15 AM 41.5°F5.3°C 39.1°F3.9°C 91% Calm Calm 1.1 mph1.8 kmh 30.18 in1022.0 mb 0.00 in0.0 mm 0.00 in0.0 mm 0.02 in0.5 mm
04:30 AM 41.5°F5.3°C 39.1°F3.9°C 91% Calm Calm -- 30.19 in1022.4 mb 0.00 in0.0 mm 0.00 in0.0 mm 0.02 in0.5 mm
04:45 AM 41.9°F5.5°C 39.5°F4.2°C 91% Calm Calm -- 30.18 in1022.0 mb 0.00 in0.0 mm 0.00 in0.0 mm 0.02 in0.5 mm
05:00 AM 42.1°F5.6°C 39.6°F4.2°C 91% 0.1 mph SSE0.2 kmh SSE 2.5 mph4.0 kmh 30.19 in1022.4 mb 0.00 in0.0 mm 0.00 in0.0 mm 0.02 in0.5 mm
05:15 AM 42.4°F5.8°C 40.0°F4.4°C 91% Calm Calm -- 30.19 in1022.4 mb 0.00 in0.0 mm 0.00 in0.0 mm 0.02 in0.5 mm
05:30 AM 42.4°F5.8°C 40.0°F4.4°C 91% Calm Calm -- 30.20 in1022.7 mb 0.00 in0.0 mm 0.00 in0.0 mm 0.02 in0.5 mm
05:45 AM 42.4°F5.8°C 40.0°F4.4°C 91% Calm Calm 0.9 mph1.4 kmh 30.20 in1022.7 mb 0.00 in0.0 mm 0.00 in0.0 mm 0.02 in0.5 mm
06:00 AM 42.4°F5.8°C 40.0°F4.4°C 91% 0.1 mph SSE0.2 kmh SSE 1.6 mph2.6 kmh 30.20 in1022.7 mb 0.00 in0.0 mm 0.00 in0.0 mm 0.02 in0.5 mm
06:15 AM 42.4°F5.8°C 40.0°F4.4°C 91% Calm Calm 1.1 mph1.8 kmh 30.20 in1022.7 mb 0.00 in0.0 mm 0.00 in0.0 mm 0.02 in0.5 mm
06:30 AM 42.4°F5.8°C 40.0°F4.4°C 91% Calm Calm -- 30.20 in1022.7 mb 0.00 in0.0 mm 0.00 in0.0 mm 0.02 in0.5 mm
06:45 AM 42.4°F5.8°C 40.0°F4.4°C 91% 1.0 mph SSE1.6 kmh SSE 3.1 mph5.0 kmh 30.20 in1022.7 mb 0.00 in0.0 mm 0.00 in0.0 mm 0.02 in0.5 mm
07:00 AM 42.4°F5.8°C 40.0°F4.4°C 91% Calm Calm -- 30.21 in1023.0 mb 0.00 in0.0 mm 0.00 in0.0 mm 0.02 in0.5 mm
07:15 AM 42.4°F5.8°C 40.0°F4.4°C 91% Calm Calm -- 30.21 in1023.0 mb 0.00 in0.0 mm 0.00 in0.0 mm 0.02 in0.5 mm
07:30 AM 42.1°F5.6°C 39.6°F4.2°C 91% Calm Calm -- 30.22 in1023.4 mb 0.00 in0.0 mm 0.00 in0.0 mm 0.02 in0.5 mm
07:45 AM 41.7°F5.4°C 39.3°F4.1°C 91% Calm Calm -- 30.22 in1023.4 mb 0.00 in0.0 mm 0.00 in0.0 mm 0.02 in0.5 mm
08:00 AM 42.1°F5.6°C 39.6°F4.2°C 91% Calm Calm -- 30.24 in1024.0 mb 0.00 in0.0 mm 0.00 in0.0 mm 0.02 in0.5 mm
08:15 AM 42.6°F5.9°C 40.2°F4.6°C 91% Calm Calm -- 30.25 in1024.4 mb 0.00 in0.0 mm 0.00 in0.0 mm 0.02 in0.5 mm
08:30 AM 43.0°F6.1°C 40.5°F4.7°C 91% Calm Calm 1.3 mph2.1 kmh 30.25 in1024.4 mb 0.00 in0.0 mm 0.00 in0.0 mm 0.02 in0.5 mm
08:45 AM 43.0°F6.1°C 40.5°F4.7°C 91% 0.2 mph SSE0.3 kmh SSE 2.9 mph4.7 kmh 30.25 in1024.4 mb 0.00 in0.0 mm 0.00 in0.0 mm 0.02 in0.5 mm
09:00 AM 43.0°F6.1°C 40.5°F4.7°C 91% Calm Calm -- 30.25 in1024.4 mb 0.00 in0.0 mm 0.00 in0.0 mm 0.02 in0.5 mm
09:15 AM 43.0°F6.1°C 40.5°F4.7°C 91% 0.4 mph SSE0.6 kmh SSE 3.1 mph5.0 kmh 30.26 in1024.7 mb 0.00 in0.0 mm 0.00 in0.0 mm 0.02 in0.5 mm
09:30 AM 43.3°F6.3°C 40.9°F4.9°C 91% 0.1 mph SSE0.2 kmh SSE 2.0 mph3.2 kmh 30.26 in1024.7 mb 0.00 in0.0 mm 0.00 in0.0 mm 0.02 in0.5 mm
09:45 AM 43.9°F6.6°C 41.4°F5.2°C 91% Calm Calm -- 30.26 in1024.7 mb 0.00 in0.0 mm 0.00 in0.0 mm 0.02 in0.5 mm
10:00 AM 44.8°F7.1°C 42.3°F5.7°C 91% 0.1 mph SSE0.2 kmh SSE 2.0 mph3.2 kmh 30.27 in1025.1 mb 0.00 in0.0 mm 0.00 in0.0 mm 0.02 in0.5 mm
10:15 AM 44.8°F7.1°C 42.3°F5.7°C 91% Calm Calm -- 30.27 in1025.1 mb 0.00 in0.0 mm 0.00 in0.0 mm 0.02 in0.5 mm
10:30 AM 45.3°F7.4°C 42.8°F6.0°C 91% 0.4 mph ENE0.6 kmh ENE 3.1 mph5.0 kmh 30.27 in1025.1 mb 0.00 in0.0 mm 0.00 in0.0 mm 0.02 in0.5 mm
10:45 AM 46.0°F7.8°C 43.3°F6.3°C 90% 2.5 mph SE4.0 kmh SE 7.2 mph11.6 kmh 30.27 in1025.1 mb 0.00 in0.0 mm 0.00 in0.0 mm 0.02 in0.5 mm
11:00 AM 47.1°F8.4°C 43.4°F6.3°C 87% 3.0 mph SE4.8 kmh SE 8.9 mph14.3 kmh 30.27 in1025.1 mb 0.02 in0.5 mm 0.03 in0.8 mm 0.04 in1.0 mm
11:30 AM 46.2°F7.9°C 41.3°F5.2°C 83% 4.7 mph SE7.6 kmh SE 11.2 mph18.0 kmh 30.26 in1024.7 mb 0.02 in0.5 mm 0.00 in0.0 mm 0.04 in1.0 mm
11:45 AM 46.0°F7.8°C 41.2°F5.1°C 83% 3.5 mph SE5.6 kmh SE 11.4 mph18.3 kmh 30.26 in1024.7 mb 0.02 in0.5 mm 0.00 in0.0 mm 0.04 in1.0 mm
12:00 PM 46.0°F7.8°C 41.2°F5.1°C 83% 3.0 mph SE4.8 kmh SE 8.3 mph13.4 kmh 30.25 in1024.4 mb 0.00 in0.0 mm 0.00 in0.0 mm 0.04 in1.0 mm
12:15 PM 45.7°F7.6°C 40.8°F4.9°C 83% 3.3 mph E5.3 kmh E 12.8 mph20.6 kmh 30.26 in1024.7 mb 0.00 in0.0 mm 0.00 in0.0 mm 0.04 in1.0 mm
12:30 PM 45.7°F7.6°C 40.5°F4.7°C 82% 4.0 mph SE6.4 kmh SE 10.5 mph16.9 kmh 30.25 in1024.4 mb 0.00 in0.0 mm 0.00 in0.0 mm 0.04 in1.0 mm
12:45 PM 45.7°F7.6°C 40.2°F4.6°C 81% 4.5 mph SE7.2 kmh SE 16.8 mph27.0 kmh 30.25 in1024.4 mb 0.00 in0.0 mm 0.00 in0.0 mm 0.04 in1.0 mm
01:00 PM 46.0°F7.8°C 40.2°F4.6°C 80% 3.8 mph SE6.1 kmh SE 12.3 mph19.8 kmh 30.25 in1024.4 mb 0.00 in0.0 mm 0.00 in0.0 mm 0.04 in1.0 mm
01:15 PM 46.2°F7.9°C 40.1°F4.5°C 79% 5.0 mph SSE8.0 kmh SSE 11.9 mph19.2 kmh 30.24 in1024.0 mb 0.00 in0.0 mm 0.00 in0.0 mm 0.04 in1.0 mm
01:30 PM 47.1°F8.4°C 40.6°F4.8°C 78% 4.2 mph SSE6.8 kmh SSE 12.1 mph19.5 kmh 30.24 in1024.0 mb 0.00 in0.0 mm 0.00 in0.0 mm 0.04 in1.0 mm
01:45 PM 48.7°F9.3°C 41.2°F5.1°C 75% 6.2 mph SSE10.0 kmh SSE 11.6 mph18.7 kmh 30.23 in1023.7 mb 0.00 in0.0 mm 0.00 in0.0 mm 0.04 in1.0 mm
02:00 PM 47.8°F8.8°C 40.0°F4.4°C 74% 4.7 mph SE7.6 kmh SE 12.5 mph20.1 kmh 30.23 in1023.7 mb 0.00 in0.0 mm 0.00 in0.0 mm 0.04 in1.0 mm
02:15 PM 47.7°F8.7°C 40.1°F4.5°C 75% 4.5 mph SE7.2 kmh SE 11.9 mph19.2 kmh 30.23 in1023.7 mb 0.00 in0.0 mm 0.00 in0.0 mm 0.04 in1.0 mm
02:30 PM 47.7°F8.7°C 39.4°F4.1°C 73% 4.3 mph SSE6.9 kmh SSE 16.1 mph25.9 kmh 30.23 in1023.7 mb 0.00 in0.0 mm 0.00 in0.0 mm 0.04 in1.0 mm
02:45 PM 47.3°F8.5°C 39.1°F3.9°C 73% 4.3 mph SE6.9 kmh SE 13.6 mph21.9 kmh 30.23 in1023.7 mb 0.00 in0.0 mm 0.00 in0.0 mm 0.04 in1.0 mm
03:00 PM 47.3°F8.5°C 38.7°F3.7°C 72% 5.2 mph ESE8.4 kmh ESE 11.9 mph19.2 kmh 30.23 in1023.7 mb 0.00 in0.0 mm 0.00 in0.0 mm 0.04 in1.0 mm
03:15 PM 47.1°F8.4°C 38.6°F3.7°C 72% 4.6 mph SE7.4 kmh SE 10.5 mph16.9 kmh 30.22 in1023.4 mb 0.00 in0.0 mm 0.00 in0.0 mm 0.04 in1.0 mm
03:30 PM 47.3°F8.5°C 38.4°F3.6°C 71% 5.0 mph SE8.0 kmh SE 13.6 mph21.9 kmh 30.23 in1023.7 mb 0.00 in0.0 mm 0.00 in0.0 mm 0.04 in1.0 mm
03:45 PM 47.5°F8.6°C 38.2°F3.4°C 70% 3.8 mph ESE6.1 kmh ESE 17.4 mph28.0 kmh 30.22 in1023.4 mb 0.00 in0.0 mm 0.00 in0.0 mm 0.04 in1.0 mm
04:00 PM 47.5°F8.6°C 37.8°F3.2°C 69% 3.9 mph ESE6.3 kmh ESE 10.5 mph16.9 kmh 30.22 in1023.4 mb 0.00 in0.0 mm 0.00 in0.0 mm 0.04 in1.0 mm
04:15 PM 46.9°F8.3°C 37.3°F2.9°C 69% 4.9 mph SE7.9 kmh SE 14.3 mph23.0 kmh 30.22 in1023.4 mb 0.00 in0.0 mm 0.00 in0.0 mm 0.04 in1.0 mm
04:30 PM 46.9°F8.3°C 37.3°F2.9°C 69% 3.7 mph SE6.0 kmh SE 13.4 mph21.6 kmh 30.23 in1023.7 mb 0.00 in0.0 mm 0.00 in0.0 mm 0.04 in1.0 mm
04:45 PM 46.6°F8.1°C 37.0°F2.8°C 69% 5.2 mph SE8.4 kmh SE 14.1 mph22.7 kmh 30.23 in1023.7 mb 0.00 in0.0 mm 0.00 in0.0 mm 0.04 in1.0 mm
05:00 PM 46.2°F7.9°C 36.6°F2.6°C 69% 4.4 mph SE7.1 kmh SE 10.3 mph16.6 kmh 30.23 in1023.7 mb 0.00 in0.0 mm 0.00 in0.0 mm 0.04 in1.0 mm
05:15 PM 45.7°F7.6°C 35.7°F2.1°C 68% 5.5 mph SE8.9 kmh SE 13.2 mph21.2 kmh 30.23 in1023.7 mb 0.00 in0.0 mm 0.00 in0.0 mm 0.04 in1.0 mm
05:30 PM 45.1°F7.3°C 35.6°F2.0°C 69% 3.7 mph SE6.0 kmh SE 9.6 mph15.4 kmh 30.23 in1023.7 mb 0.00 in0.0 mm 0.00 in0.0 mm 0.04 in1.0 mm
05:45 PM 44.8°F7.1°C 35.9°F2.2°C 71% 3.0 mph ESE4.8 kmh ESE 9.2 mph14.8 kmh 30.23 in1023.7 mb 0.00 in0.0 mm 0.00 in0.0 mm 0.04 in1.0 mm
06:00 PM 44.4°F6.9°C 36.3°F2.4°C 73% 3.3 mph ESE5.3 kmh ESE 10.5 mph16.9 kmh 30.24 in1024.0 mb 0.00 in0.0 mm 0.00 in0.0 mm 0.04 in1.0 mm
06:15 PM 44.1°F6.7°C 36.0°F2.2°C 73% 5.2 mph SE8.4 kmh SE 16.6 mph26.7 kmh 30.24 in1024.0 mb 0.00 in0.0 mm 0.00 in0.0 mm 0.04 in1.0 mm
06:30 PM 43.9°F6.6°C 36.1°F2.3°C 74% 4.3 mph ESE6.9 kmh ESE 12.8 mph20.6 kmh 30.24 in1024.0 mb 0.00 in0.0 mm 0.00 in0.0 mm 0.04 in1.0 mm
06:45 PM 43.5°F6.4°C 36.1°F2.3°C 75% 5.0 mph SE8.0 kmh SE 11.2 mph18.0 kmh 30.24 in1024.0 mb 0.00 in0.0 mm 0.00 in0.0 mm 0.04 in1.0 mm
07:00 PM 43.3°F6.3°C 36.3°F2.4°C 76% 4.0 mph E6.4 kmh E 12.3 mph19.8 kmh 30.25 in1024.4 mb 0.00 in0.0 mm 0.00 in0.0 mm 0.04 in1.0 mm
07:15 PM 43.3°F6.3°C 36.3°F2.4°C 76% 4.8 mph ESE7.7 kmh ESE 10.5 mph16.9 kmh 30.25 in1024.4 mb 0.00 in0.0 mm 0.00 in0.0 mm 0.04 in1.0 mm
07:30 PM 43.2°F6.2°C 36.1°F2.3°C 76% 4.3 mph E6.9 kmh E 14.8 mph23.8 kmh 30.25 in1024.4 mb 0.00 in0.0 mm 0.00 in0.0 mm 0.04 in1.0 mm
07:45 PM 43.0°F6.1°C 36.3°F2.4°C 77% 4.8 mph ESE7.7 kmh ESE 15.9 mph25.6 kmh 30.25 in1024.4 mb 0.00 in0.0 mm 0.00 in0.0 mm 0.04 in1.0 mm
08:00 PM 42.6°F5.9°C 35.9°F2.2°C 77% 4.8 mph ENE7.7 kmh ENE 14.3 mph23.0 kmh 30.24 in1024.0 mb 0.00 in0.0 mm 0.00 in0.0 mm 0.04 in1.0 mm
08:15 PM 42.6°F5.9°C 36.2°F2.3°C 78% 5.3 mph ENE8.5 kmh ENE 16.6 mph26.7 kmh 30.25 in1024.4 mb 0.00 in0.0 mm 0.00 in0.0 mm 0.04 in1.0 mm
08:30 PM 42.4°F5.8°C 36.1°F2.3°C 78% 5.5 mph E8.9 kmh E 15.7 mph25.3 kmh 30.25 in1024.4 mb 0.00 in0.0 mm 0.00 in0.0 mm 0.04 in1.0 mm
08:45 PM 42.4°F5.8°C 36.1°F2.3°C 78% 4.2 mph ESE6.8 kmh ESE 14.5 mph23.3 kmh 30.25 in1024.4 mb 0.00 in0.0 mm 0.00 in0.0 mm 0.04 in1.0 mm
09:00 PM 42.4°F5.8°C 36.1°F2.3°C 78% 4.1 mph NE6.6 kmh NE 12.8 mph20.6 kmh 30.25 in1024.4 mb 0.00 in0.0 mm 0.00 in0.0 mm 0.04 in1.0 mm
09:15 PM 42.4°F5.8°C 35.7°F2.1°C 77% 4.5 mph ENE7.2 kmh ENE 14.8 mph23.8 kmh 30.26 in1024.7 mb 0.00 in0.0 mm 0.00 in0.0 mm 0.04 in1.0 mm
09:30 PM 42.4°F5.8°C 35.7°F2.1°C 77% 3.9 mph NNE6.3 kmh NNE 11.2 mph18.0 kmh 30.27 in1025.1 mb 0.00 in0.0 mm 0.00 in0.0 mm 0.04 in1.0 mm
09:45 PM 42.4°F5.8°C 35.7°F2.1°C 77% 3.2 mph E5.1 kmh E 16.6 mph26.7 kmh 30.26 in1024.7 mb 0.00 in0.0 mm 0.00 in0.0 mm 0.04 in1.0 mm
10:00 PM 42.4°F5.8°C 35.7°F2.1°C 77% 3.3 mph NE5.3 kmh NE 12.3 mph19.8 kmh 30.26 in1024.7 mb 0.00 in0.0 mm 0.00 in0.0 mm 0.04 in1.0 mm
10:15 PM 41.9°F5.5°C 35.5°F1.9°C 78% 3.7 mph E6.0 kmh E 11.6 mph18.7 kmh 30.26 in1024.7 mb 0.00 in0.0 mm 0.00 in0.0 mm 0.04 in1.0 mm
10:30 PM 41.5°F5.3°C 35.2°F1.8°C 78% 3.1 mph ESE5.0 kmh ESE 10.5 mph16.9 kmh 30.25 in1024.4 mb 0.00 in0.0 mm 0.00 in0.0 mm 0.04 in1.0 mm
10:45 PM 41.5°F5.3°C 35.2°F1.8°C 78% 3.4 mph ENE5.5 kmh ENE 9.8 mph15.8 kmh 30.25 in1024.4 mb 0.00 in0.0 mm 0.00 in0.0 mm 0.04 in1.0 mm
11:00 PM 41.5°F5.3°C 35.2°F1.8°C 78% 3.8 mph E6.1 kmh E 13.2 mph21.2 kmh 30.25 in1024.4 mb 0.00 in0.0 mm 0.00 in0.0 mm 0.04 in1.0 mm
11:15 PM 41.5°F5.3°C 35.5°F1.9°C 79% 2.4 mph E3.9 kmh E 8.5 mph13.7 kmh 30.25 in1024.4 mb 0.00 in0.0 mm 0.00 in0.0 mm 0.04 in1.0 mm
11:30 PM 41.5°F5.3°C 35.2°F1.8°C 78% 3.2 mph ENE5.1 kmh ENE 10.1 mph16.3 kmh 30.25 in1024.4 mb 0.00 in0.0 mm 0.00 in0.0 mm 0.04 in1.0 mm
11:45 PM 41.9°F5.5°C 35.5°F1.9°C 78% 3.3 mph NE5.3 kmh NE 10.5 mph16.9 kmh 30.24 in1024.0 mb 0.00 in0.0 mm 0.00 in0.0 mm 0.04 in1.0 mm